sensor_id;sensor_type;location;lat;lon;timestamp;pressure;altitude;pressure_sealevel;temperature;humidity
72685;BME280;61365;52.162;4.500;2023-02-19T00:01:43;101738.63;;;10.07;91.03
72685;BME280;61365;52.162;4.500;2023-02-19T00:04:14;101742.97;;;10.05;91.85
72685;BME280;61365;52.162;4.500;2023-02-19T00:06:44;101743.03;;;10.10;91.25
72685;BME280;61365;52.162;4.500;2023-02-19T00:09:13;101732.50;;;10.06;91.15
72685;BME280;61365;52.162;4.500;2023-02-19T00:11:41;101735.94;;;10.02;90.72
72685;BME280;61365;52.162;4.500;2023-02-19T00:14:09;101736.75;;;10.00;91.12
72685;BME280;61365;52.162;4.500;2023-02-19T00:16:42;101746.34;;;9.98;90.69
72685;BME280;61365;52.162;4.500;2023-02-19T00:19:12;101739.53;;;10.09;91.04
72685;BME280;61365;52.162;4.500;2023-02-19T00:21:40;101735.84;;;9.96;90.17
72685;BME280;61365;52.162;4.500;2023-02-19T00:24:09;101746.19;;;9.88;90.66
72685;BME280;61365;52.162;4.500;2023-02-19T00:26:38;101750.69;;;9.96;91.10
72685;BME280;61365;52.162;4.500;2023-02-19T00:29:05;101745.97;;;9.76;90.45
72685;BME280;61365;52.162;4.500;2023-02-19T00:31:34;101752.44;;;9.97;89.86
72685;BME280;61365;52.162;4.500;2023-02-19T00:34:03;101765.59;;;9.98;91.23
72685;BME280;61365;52.162;4.500;2023-02-19T00:36:33;101761.22;;;9.99;90.27
72685;BME280;61365;52.162;4.500;2023-02-19T00:39:03;101763.81;;;9.96;89.59
72685;BME280;61365;52.162;4.500;2023-02-19T00:41:31;101767.31;;;9.98;91.04
72685;BME280;61365;52.162;4.500;2023-02-19T00:44:00;101769.97;;;10.01;91.62
72685;BME280;61365;52.162;4.500;2023-02-19T00:49:06;101780.34;;;9.91;91.63
72685;BME280;61365;52.162;4.500;2023-02-19T00:51:36;101770.78;;;9.95;91.81
72685;BME280;61365;52.162;4.500;2023-02-19T00:54:04;101769.00;;;9.93;91.25
72685;BME280;61365;52.162;4.500;2023-02-19T00:56:31;101772.47;;;9.91;90.70
72685;BME280;61365;52.162;4.500;2023-02-19T00:58:57;101775.78;;;9.80;89.30
72685;BME280;61365;52.162;4.500;2023-02-19T01:01:24;101786.31;;;9.84;88.90
72685;BME280;61365;52.162;4.500;2023-02-19T01:03:50;101781.09;;;9.84;90.86
72685;BME280;61365;52.162;4.500;2023-02-19T01:06:18;101781.69;;;9.68;90.91
72685;BME280;61365;52.162;4.500;2023-02-19T01:08:46;101779.00;;;9.65;91.75
72685;BME280;61365;52.162;4.500;2023-02-19T01:11:13;101776.34;;;9.63;92.18
72685;BME280;61365;52.162;4.500;2023-02-19T01:13:41;101780.66;;;9.61;92.05
72685;BME280;61365;52.162;4.500;2023-02-19T01:16:17;101787.72;;;9.64;92.29
72685;BME280;61365;52.162;4.500;2023-02-19T01:18:45;101797.03;;;9.49;91.68
72685;BME280;61365;52.162;4.500;2023-02-19T01:21:17;101786.94;;;9.68;91.52
72685;BME280;61365;52.162;4.500;2023-02-19T01:23:48;101787.72;;;9.64;91.08
72685;BME280;61365;52.162;4.500;2023-02-19T01:26:21;101792.00;;;9.60;90.30
72685;BME280;61365;52.162;4.500;2023-02-19T01:28:51;101794.97;;;9.79;91.04
72685;BME280;61365;52.162;4.500;2023-02-19T01:31:20;101803.91;;;9.90;90.78
72685;BME280;61365;52.162;4.500;2023-02-19T01:33:56;101801.88;;;9.75;90.54
72685;BME280;61365;52.162;4.500;2023-02-19T01:36:28;101793.94;;;9.70;91.43
72685;BME280;61365;52.162;4.500;2023-02-19T01:38:59;101789.56;;;9.69;92.79
72685;BME280;61365;52.162;4.500;2023-02-19T01:41:30;101787.00;;;9.72;93.32
72685;BME280;61365;52.162;4.500;2023-02-19T01:44:01;101793.22;;;9.77;93.14
72685;BME280;61365;52.162;4.500;2023-02-19T01:46:32;101800.97;;;9.73;92.18
72685;BME280;61365;52.162;4.500;2023-02-19T01:49:05;101797.66;;;9.83;93.15
72685;BME280;61365;52.162;4.500;2023-02-19T01:51:42;101803.88;;;9.88;92.21
72685;BME280;61365;52.162;4.500;2023-02-19T01:54:14;101804.44;;;9.70;92.58
72685;BME280;61365;52.162;4.500;2023-02-19T01:56:47;101806.13;;;9.67;94.09
72685;BME280;61365;52.162;4.500;2023-02-19T01:59:15;101809.91;;;9.84;93.84
72685;BME280;61365;52.162;4.500;2023-02-19T02:01:45;101806.38;;;9.81;93.76
72685;BME280;61365;52.162;4.500;2023-02-19T02:04:13;101812.28;;;9.69;93.07
72685;BME280;61365;52.162;4.500;2023-02-19T02:06:47;101812.41;;;9.76;92.65
72685;BME280;61365;52.162;4.500;2023-02-19T02:09:18;101817.47;;;9.66;92.51
72685;BME280;61365;52.162;4.500;2023-02-19T02:12:05;101819.69;;;9.45;92.97
72685;BME280;61365;52.162;4.500;2023-02-19T02:14:35;101825.88;;;9.49;93.26
72685;BME280;61365;52.162;4.500;2023-02-19T02:17:19;101822.44;;;9.53;93.75
72685;BME280;61365;52.162;4.500;2023-02-19T02:26:29;101821.94;;;9.73;92.96
72685;BME280;61365;52.162;4.500;2023-02-19T02:31:48;101814.78;;;9.64;93.15
72685;BME280;61365;52.162;4.500;2023-02-19T02:34:43;101810.47;;;9.66;92.22
72685;BME280;61365;52.162;4.500;2023-02-19T02:37:15;101816.88;;;9.81;90.29
72685;BME280;61365;52.162;4.500;2023-02-19T02:39:43;101816.28;;;9.51;92.23
72685;BME280;61365;52.162;4.500;2023-02-19T02:42:12;101819.13;;;9.62;93.44
72685;BME280;61365;52.162;4.500;2023-02-19T02:44:57;101817.28;;;9.56;92.89
72685;BME280;61365;52.162;4.500;2023-02-19T02:51:31;101818.25;;;9.61;93.18
72685;BME280;61365;52.162;4.500;2023-02-19T02:57:02;101834.63;;;9.51;92.51
72685;BME280;61365;52.162;4.500;2023-02-19T02:59:33;101837.31;;;9.53;92.53
72685;BME280;61365;52.162;4.500;2023-02-19T03:02:07;101843.53;;;9.58;93.45
72685;BME280;61365;52.162;4.500;2023-02-19T03:10:27;101846.19;;;9.61;94.77
72685;BME280;61365;52.162;4.500;2023-02-19T03:13:06;101851.53;;;9.67;94.34
72685;BME280;61365;52.162;4.500;2023-02-19T03:16:01;101852.06;;;9.49;93.56
72685;BME280;61365;52.162;4.500;2023-02-19T03:19:02;101853.38;;;9.71;93.92
72685;BME280;61365;52.162;4.500;2023-02-19T03:21:52;101856.38;;;9.45;93.34
72685;BME280;61365;52.162;4.500;2023-02-19T03:24:31;101860.78;;;9.48;93.38
72685;BME280;61365;52.162;4.500;2023-02-19T03:27:19;101857.44;;;9.55;93.97
72685;BME280;61365;52.162;4.500;2023-02-19T03:29:49;101862.59;;;9.51;93.72
72685;BME280;61365;52.162;4.500;2023-02-19T03:32:24;101856.28;;;9.41;93.31
72685;BME280;61365;52.162;4.500;2023-02-19T03:35:05;101852.91;;;9.46;93.39
72685;BME280;61365;52.162;4.500;2023-02-19T03:37:42;101868.00;;;9.60;93.41
72685;BME280;61365;52.162;4.500;2023-02-19T03:40:20;101868.81;;;9.56;93.26
72685;BME280;61365;52.162;4.500;2023-02-19T03:48:39;101882.06;;;9.64;94.46
72685;BME280;61365;52.162;4.500;2023-02-19T03:51:29;101876.75;;;9.60;93.45
72685;BME280;61365;52.162;4.500;2023-02-19T03:54:11;101885.41;;;9.55;92.70
72685;BME280;61365;52.162;4.500;2023-02-19T03:57:18;101879.28;;;9.56;92.07
72685;BME280;61365;52.162;4.500;2023-02-19T04:00:17;101883.63;;;9.55;92.91
72685;BME280;61365;52.162;4.500;2023-02-19T04:02:55;101885.69;;;9.27;93.02
72685;BME280;61365;52.162;4.500;2023-02-19T04:05:29;101892.75;;;9.31;93.88
72685;BME280;61365;52.162;4.500;2023-02-19T04:08:04;101890.72;;;9.59;94.24
72685;BME280;61365;52.162;4.500;2023-02-19T04:10:37;101894.25;;;9.61;93.34
72685;BME280;61365;52.162;4.500;2023-02-19T04:13:09;101891.31;;;9.46;91.73
72685;BME280;61365;52.162;4.500;2023-02-19T04:15:43;101896.44;;;9.40;92.18
72685;BME280;61365;52.162;4.500;2023-02-19T04:18:17;101893.75;;;9.37;92.97
72685;BME280;61365;52.162;4.500;2023-02-19T04:20:50;101906.09;;;9.42;92.13
72685;BME280;61365;52.162;4.500;2023-02-19T04:23:20;101907.91;;;9.45;92.49
72685;BME280;61365;52.162;4.500;2023-02-19T04:25:53;101910.47;;;9.42;92.73
72685;BME280;61365;52.162;4.500;2023-02-19T04:28:24;101912.16;;;9.40;93.06
72685;BME280;61365;52.162;4.500;2023-02-19T04:30:50;101929.44;;;9.31;92.83
72685;BME280;61365;52.162;4.500;2023-02-19T04:33:17;101927.75;;;9.35;93.06
72685;BME280;61365;52.162;4.500;2023-02-19T04:35:43;101933.13;;;9.41;93.31
72685;BME280;61365;52.162;4.500;2023-02-19T04:38:09;101941.44;;;9.63;92.30
72685;BME280;61365;52.162;4.500;2023-02-19T04:40:37;101944.81;;;9.56;91.22
72685;BME280;61365;52.162;4.500;2023-02-19T04:43:03;101952.53;;;9.50;91.98
72685;BME280;61365;52.162;4.500;2023-02-19T04:45:29;101960.84;;;9.30;91.75
72685;BME280;61365;52.162;4.500;2023-02-19T04:47:58;101953.94;;;9.35;92.19
72685;BME280;61365;52.162;4.500;2023-02-19T04:50:25;101970.56;;;9.36;92.61
72685;BME280;61365;52.162;4.500;2023-02-19T04:52:51;101956.75;;;9.43;92.09
72685;BME280;61365;52.162;4.500;2023-02-19T04:55:17;101971.31;;;9.70;90.94
72685;BME280;61365;52.162;4.500;2023-02-19T04:57:43;101978.19;;;9.65;90.30
72685;BME280;61365;52.162;4.500;2023-02-19T05:00:10;101982.03;;;9.41;91.57
72685;BME280;61365;52.162;4.500;2023-02-19T05:02:37;101987.69;;;9.61;92.25
72685;BME280;61365;52.162;4.500;2023-02-19T05:05:03;101986.44;;;9.43;92.27
72685;BME280;61365;52.162;4.500;2023-02-19T05:07:30;101989.16;;;9.46;92.53
72685;BME280;61365;52.162;4.500;2023-02-19T05:09:56;101988.53;;;9.58;92.83
72685;BME280;61365;52.162;4.500;2023-02-19T05:12:25;101993.53;;;9.48;92.09
72685;BME280;61365;52.162;4.500;2023-02-19T05:14:51;102001.19;;;9.38;92.10
72685;BME280;61365;52.162;4.500;2023-02-19T05:17:17;102001.09;;;9.34;91.95
72685;BME280;61365;52.162;4.500;2023-02-19T05:19:44;101998.88;;;9.52;91.80
72685;BME280;61365;52.162;4.500;2023-02-19T05:22:10;102014.34;;;9.41;91.51
72685;BME280;61365;52.162;4.500;2023-02-19T05:24:36;102005.25;;;9.65;92.50
72685;BME280;61365;52.162;4.500;2023-02-19T05:27:03;102004.41;;;9.66;91.16
72685;BME280;61365;52.162;4.500;2023-02-19T05:29:30;102005.03;;;9.54;92.17
72685;BME280;61365;52.162;4.500;2023-02-19T05:31:56;102007.56;;;9.50;90.62
72685;BME280;61365;52.162;4.500;2023-02-19T05:34:23;102010.72;;;9.74;89.16
72685;BME280;61365;52.162;4.500;2023-02-19T05:36:49;102007.25;;;9.37;90.96
72685;BME280;61365;52.162;4.500;2023-02-19T05:39:16;102007.00;;;9.25;92.13
72685;BME280;61365;52.162;4.500;2023-02-19T05:41:42;102003.78;;;9.37;93.07
72685;BME280;61365;52.162;4.500;2023-02-19T05:44:09;102003.47;;;9.24;92.23
72685;BME280;61365;52.162;4.500;2023-02-19T05:46:36;102010.63;;;9.30;93.19
72685;BME280;61365;52.162;4.500;2023-02-19T05:49:02;102007.25;;;9.36;93.21
72685;BME280;61365;52.162;4.500;2023-02-19T05:51:29;102009.63;;;9.26;93.44
72685;BME280;61365;52.162;4.500;2023-02-19T05:53:56;102017.22;;;9.14;93.24
72685;BME280;61365;52.162;4.500;2023-02-19T05:58:58;102026.72;;;9.10;94.75
72685;BME280;61365;52.162;4.500;2023-02-19T06:01:27;102026.69;;;9.09;94.48
72685;BME280;61365;52.162;4.500;2023-02-19T06:03:55;102031.50;;;9.27;95.18
72685;BME280;61365;52.162;4.500;2023-02-19T06:06:22;102035.16;;;9.35;94.91
72685;BME280;61365;52.162;4.500;2023-02-19T06:08:49;102039.97;;;9.16;94.18
72685;BME280;61365;52.162;4.500;2023-02-19T06:11:16;102036.31;;;9.10;94.44
72685;BME280;61365;52.162;4.500;2023-02-19T06:13:44;102035.41;;;9.08;93.97
72685;BME280;61365;52.162;4.500;2023-02-19T06:16:10;102038.44;;;9.26;93.71
72685;BME280;61365;52.162;4.500;2023-02-19T06:18:37;102045.88;;;9.46;92.38
72685;BME280;61365;52.162;4.500;2023-02-19T06:21:07;102049.38;;;9.45;93.01
72685;BME280;61365;52.162;4.500;2023-02-19T06:23:35;102055.00;;;9.24;93.26
72685;BME280;61365;52.162;4.500;2023-02-19T06:26:09;102064.81;;;9.34;94.00
72685;BME280;61365;52.162;4.500;2023-02-19T06:28:39;102062.66;;;9.53;92.37
72685;BME280;61365;52.162;4.500;2023-02-19T06:31:08;102061.06;;;9.59;90.45
72685;BME280;61365;52.162;4.500;2023-02-19T06:33:38;102056.91;;;9.31;92.07
72685;BME280;61365;52.162;4.500;2023-02-19T06:36:07;102066.22;;;9.18;93.05
72685;BME280;61365;52.162;4.500;2023-02-19T06:38:37;102067.34;;;9.29;93.87
72685;BME280;61365;52.162;4.500;2023-02-19T06:41:05;102061.84;;;9.19;93.34
72685;BME280;61365;52.162;4.500;2023-02-19T06:43:33;102058.47;;;9.23;93.92
72685;BME280;61365;52.162;4.500;2023-02-19T06:46:00;102070.47;;;9.14;93.11
72685;BME280;61365;52.162;4.500;2023-02-19T06:48:29;102070.06;;;9.34;94.70
72685;BME280;61365;52.162;4.500;2023-02-19T06:50:56;102069.75;;;9.20;93.56
72685;BME280;61365;52.162;4.500;2023-02-19T06:53:23;102076.22;;;9.35;93.54
72685;BME280;61365;52.162;4.500;2023-02-19T06:55:56;102081.09;;;9.21;93.60
72685;BME280;61365;52.162;4.500;2023-02-19T06:58:24;102084.31;;;9.09;94.07
72685;BME280;61365;52.162;4.500;2023-02-19T07:00:51;102092.44;;;9.20;94.95
72685;BME280;61365;52.162;4.500;2023-02-19T07:03:19;102098.91;;;8.99;93.50
72685;BME280;61365;52.162;4.500;2023-02-19T07:05:45;102100.94;;;9.11;93.85
72685;BME280;61365;52.162;4.500;2023-02-19T07:08:12;102108.97;;;9.17;94.40
72685;BME280;61365;52.162;4.500;2023-02-19T07:10:38;102120.00;;;9.05;94.15
72685;BME280;61365;52.162;4.500;2023-02-19T07:13:05;102122.28;;;9.26;93.21
72685;BME280;61365;52.162;4.500;2023-02-19T07:15:31;102127.16;;;9.12;92.78
72685;BME280;61365;52.162;4.500;2023-02-19T07:17:58;102137.50;;;9.06;93.81
72685;BME280;61365;52.162;4.500;2023-02-19T07:20:24;102134.94;;;9.09;95.44
72685;BME280;61365;52.162;4.500;2023-02-19T07:22:51;102129.94;;;9.19;94.87
72685;BME280;61365;52.162;4.500;2023-02-19T07:25:17;102145.09;;;9.30;94.12
72685;BME280;61365;52.162;4.500;2023-02-19T07:27:43;102141.91;;;9.09;93.15
72685;BME280;61365;52.162;4.500;2023-02-19T07:30:10;102148.88;;;9.08;94.36
72685;BME280;61365;52.162;4.500;2023-02-19T07:32:40;102160.50;;;9.18;93.73
72685;BME280;61365;52.162;4.500;2023-02-19T07:35:07;102174.34;;;9.14;93.38
72685;BME280;61365;52.162;4.500;2023-02-19T07:37:33;102169.88;;;9.10;94.15
72685;BME280;61365;52.162;4.500;2023-02-19T07:40:00;102172.13;;;8.96;94.56
72685;BME280;61365;52.162;4.500;2023-02-19T07:42:26;102187.06;;;9.00;94.79
72685;BME280;61365;52.162;4.500;2023-02-19T07:44:52;102181.00;;;9.01;95.69
72685;BME280;61365;52.162;4.500;2023-02-19T07:47:18;102187.31;;;9.09;95.05
72685;BME280;61365;52.162;4.500;2023-02-19T07:49:45;102183.38;;;9.25;93.92
72685;BME280;61365;52.162;4.500;2023-02-19T07:52:11;102200.78;;;9.23;93.19
72685;BME280;61365;52.162;4.500;2023-02-19T07:54:40;102201.88;;;8.99;93.42
72685;BME280;61365;52.162;4.500;2023-02-19T07:57:07;102204.50;;;8.99;94.99
72685;BME280;61365;52.162;4.500;2023-02-19T07:59:33;102211.94;;;9.16;94.62
72685;BME280;61365;52.162;4.500;2023-02-19T08:01:59;102214.69;;;9.21;94.44
72685;BME280;61365;52.162;4.500;2023-02-19T08:04:46;102220.31;;;9.36;94.12
72685;BME280;61365;52.162;4.500;2023-02-19T08:07:12;102213.66;;;9.15;94.09
72685;BME280;61365;52.162;4.500;2023-02-19T08:09:39;102218.34;;;9.27;93.15
72685;BME280;61365;52.162;4.500;2023-02-19T08:12:07;102212.19;;;9.25;94.54
72685;BME280;61365;52.162;4.500;2023-02-19T08:14:54;102217.66;;;9.35;94.34
72685;BME280;61365;52.162;4.500;2023-02-19T08:17:20;102211.50;;;9.32;93.65
72685;BME280;61365;52.162;4.500;2023-02-19T08:19:46;102225.63;;;9.38;92.97
72685;BME280;61365;52.162;4.500;2023-02-19T08:22:13;102215.22;;;9.41;93.27
72685;BME280;61365;52.162;4.500;2023-02-19T08:24:41;102220.13;;;9.28;93.66
72685;BME280;61365;52.162;4.500;2023-02-19T08:27:07;102228.69;;;9.55;92.46
72685;BME280;61365;52.162;4.500;2023-02-19T08:29:34;102240.59;;;9.43;91.90
72685;BME280;61365;52.162;4.500;2023-02-19T08:32:00;102242.53;;;9.51;92.18
72685;BME280;61365;52.162;4.500;2023-02-19T08:34:26;102249.38;;;9.45;92.11
72685;BME280;61365;52.162;4.500;2023-02-19T08:36:52;102239.88;;;9.49;92.41
72685;BME280;61365;52.162;4.500;2023-02-19T08:39:19;102246.56;;;9.38;92.32
72685;BME280;61365;52.162;4.500;2023-02-19T08:41:45;102240.50;;;9.39;92.54
72685;BME280;61365;52.162;4.500;2023-02-19T08:44:12;102243.88;;;9.35;92.07
72685;BME280;61365;52.162;4.500;2023-02-19T08:46:39;102237.88;;;9.39;91.61
72685;BME280;61365;52.162;4.500;2023-02-19T08:49:05;102231.88;;;9.43;91.30
72685;BME280;61365;52.162;4.500;2023-02-19T08:51:31;102229.56;;;9.55;91.28
72685;BME280;61365;52.162;4.500;2023-02-19T08:54:01;102229.25;;;9.78;91.72
72685;BME280;61365;52.162;4.500;2023-02-19T08:56:28;102236.31;;;9.81;90.09
72685;BME280;61365;52.162;4.500;2023-02-19T08:58:54;102237.84;;;9.72;90.38
72685;BME280;61365;52.162;4.500;2023-02-19T09:01:21;102236.06;;;9.71;90.95
72685;BME280;61365;52.162;4.500;2023-02-19T09:03:48;102257.34;;;9.84;89.29
72685;BME280;61365;52.162;4.500;2023-02-19T09:06:17;102250.66;;;9.97;89.17
72685;BME280;61365;52.162;4.500;2023-02-19T09:08:45;102253.69;;;9.77;89.16
72685;BME280;61365;52.162;4.500;2023-02-19T09:11:11;102260.47;;;9.69;88.01
72685;BME280;61365;52.162;4.500;2023-02-19T09:13:38;102266.03;;;9.81;88.65
72685;BME280;61365;52.162;4.500;2023-02-19T09:16:05;102270.03;;;10.02;88.65
72685;BME280;61365;52.162;4.500;2023-02-19T09:18:32;102269.47;;;9.79;87.14
72685;BME280;61365;52.162;4.500;2023-02-19T09:21:01;102270.81;;;9.64;88.97
72685;BME280;61365;52.162;4.500;2023-02-19T09:23:32;102287.69;;;9.74;89.08
72685;BME280;61365;52.162;4.500;2023-02-19T09:25:59;102289.28;;;10.02;87.32
72685;BME280;61365;52.162;4.500;2023-02-19T09:28:28;102301.03;;;9.83;87.96
72685;BME280;61365;52.162;4.500;2023-02-19T09:30:54;102310.69;;;9.84;87.97
72685;BME280;61365;52.162;4.500;2023-02-19T09:33:20;102309.56;;;9.76;87.90
72685;BME280;61365;52.162;4.500;2023-02-19T09:35:47;102316.78;;;9.85;89.57
72685;BME280;61365;52.162;4.500;2023-02-19T09:38:13;102317.88;;;9.93;88.54
72685;BME280;61365;52.162;4.500;2023-02-19T09:40:39;102322.38;;;9.97;87.23
72685;BME280;61365;52.162;4.500;2023-02-19T09:43:08;102321.13;;;9.83;85.63
72685;BME280;61365;52.162;4.500;2023-02-19T09:45:41;102337.44;;;9.71;88.28
72685;BME280;61365;52.162;4.500;2023-02-19T09:48:09;102340.25;;;9.79;88.76
72685;BME280;61365;52.162;4.500;2023-02-19T09:50:40;102336.59;;;10.07;84.74
72685;BME280;61365;52.162;4.500;2023-02-19T09:53:20;102340.63;;;9.94;87.51
72685;BME280;61365;52.162;4.500;2023-02-19T09:55:51;102356.19;;;9.86;87.65
72685;BME280;61365;52.162;4.500;2023-02-19T09:58:31;102354.59;;;9.93;87.47
72685;BME280;61365;52.162;4.500;2023-02-19T10:01:02;102354.66;;;9.95;86.62
72685;BME280;61365;52.162;4.500;2023-02-19T10:03:37;102349.03;;;10.16;86.87
72685;BME280;61365;52.162;4.500;2023-02-19T10:06:12;102357.94;;;10.21;87.13
72685;BME280;61365;52.162;4.500;2023-02-19T10:08:46;102363.66;;;10.04;86.12
72685;BME280;61365;52.162;4.500;2023-02-19T10:11:16;102361.22;;;10.14;86.30
72685;BME280;61365;52.162;4.500;2023-02-19T10:14:18;102361.03;;;10.40;85.13
72685;BME280;61365;52.162;4.500;2023-02-19T10:16:56;102359.34;;;10.42;84.34
72685;BME280;61365;52.162;4.500;2023-02-19T10:19:26;102365.06;;;10.27;86.06
72685;BME280;61365;52.162;4.500;2023-02-19T10:21:52;102376.03;;;10.10;85.43
72685;BME280;61365;52.162;4.500;2023-02-19T10:24:20;102385.81;;;10.17;87.10
72685;BME280;61365;52.162;4.500;2023-02-19T10:26:51;102390.75;;;10.05;87.08
72685;BME280;61365;52.162;4.500;2023-02-19T10:29:18;102397.03;;;10.12;86.57
72685;BME280;61365;52.162;4.500;2023-02-19T10:31:46;102393.81;;;10.22;86.22
72685;BME280;61365;52.162;4.500;2023-02-19T10:34:19;102400.28;;;10.01;86.92
72685;BME280;61365;52.162;4.500;2023-02-19T10:36:49;102394.03;;;9.98;87.21
72685;BME280;61365;52.162;4.500;2023-02-19T10:42:03;102398.78;;;9.77;88.50
72685;BME280;61365;52.162;4.500;2023-02-19T10:44:41;102402.91;;;10.01;88.60
72685;BME280;61365;52.162;4.500;2023-02-19T10:47:16;102411.25;;;9.86;90.44
72685;BME280;61365;52.162;4.500;2023-02-19T10:49:46;102399.31;;;9.66;90.96
72685;BME280;61365;52.162;4.500;2023-02-19T10:52:27;102393.69;;;9.52;91.51
72685;BME280;61365;52.162;4.500;2023-02-19T10:55:25;102395.63;;;9.59;92.54
72685;BME280;61365;52.162;4.500;2023-02-19T10:57:55;102400.25;;;9.68;93.00
72685;BME280;61365;52.162;4.500;2023-02-19T11:00:27;102392.25;;;9.97;90.01
72685;BME280;61365;52.162;4.500;2023-02-19T11:03:19;102400.63;;;9.82;90.63
72685;BME280;61365;52.162;4.500;2023-02-19T11:05:56;102410.63;;;9.97;91.04
72685;BME280;61365;52.162;4.500;2023-02-19T11:08:26;102404.19;;;10.17;90.66
72685;BME280;61365;52.162;4.500;2023-02-19T11:10:53;102402.38;;;10.87;81.94
72685;BME280;61365;52.162;4.500;2023-02-19T11:13:32;102402.63;;;10.59;80.68
72685;BME280;61365;52.162;4.500;2023-02-19T11:16:03;102412.81;;;10.13;85.31
72685;BME280;61365;52.162;4.500;2023-02-19T11:18:31;102411.34;;;10.25;86.29
72685;BME280;61365;52.162;4.500;2023-02-19T11:21:03;102408.13;;;10.35;85.25
72685;BME280;61365;52.162;4.500;2023-02-19T11:23:44;102413.50;;;10.40;84.71
72685;BME280;61365;52.162;4.500;2023-02-19T11:26:31;102428.22;;;10.01;83.53
72685;BME280;61365;52.162;4.500;2023-02-19T11:29:15;102425.13;;;10.16;86.98
72685;BME280;61365;52.162;4.500;2023-02-19T11:31:48;102425.88;;;10.80;81.33
72685;BME280;61365;52.162;4.500;2023-02-19T11:36:53;102418.25;;;10.21;84.22
72685;BME280;61365;52.162;4.500;2023-02-19T11:39:44;102412.56;;;10.37;82.09
72685;BME280;61365;52.162;4.500;2023-02-19T11:42:35;102404.97;;;10.15;81.93
72685;BME280;61365;52.162;4.500;2023-02-19T11:45:43;102410.78;;;10.36;79.21
72685;BME280;61365;52.162;4.500;2023-02-19T11:53:49;102429.13;;;10.01;86.24
72685;BME280;61365;52.162;4.500;2023-02-19T11:56:40;102427.56;;;10.42;83.25
72685;BME280;61365;52.162;4.500;2023-02-19T11:59:32;102432.38;;;10.60;84.79
72685;BME280;61365;52.162;4.500;2023-02-19T12:16:18;102432.91;;;10.45;79.34
72685;BME280;61365;52.162;4.500;2023-02-19T12:19:29;102435.88;;;10.59;75.61
72685;BME280;61365;52.162;4.500;2023-02-19T12:22:29;102449.91;;;10.59;77.09
72685;BME280;61365;52.162;4.500;2023-02-19T12:27:57;102458.88;;;10.69;73.84
72685;BME280;61365;52.162;4.500;2023-02-19T12:43:23;102472.16;;;10.40;77.64
72685;BME280;61365;52.162;4.500;2023-02-19T12:46:02;102475.41;;;10.65;72.75
72685;BME280;61365;52.162;4.500;2023-02-19T12:48:49;102490.72;;;10.48;75.70
72685;BME280;61365;52.162;4.500;2023-02-19T12:51:44;102512.25;;;10.36;79.45
72685;BME280;61365;52.162;4.500;2023-02-19T12:54:22;102508.91;;;10.42;78.40
72685;BME280;61365;52.162;4.500;2023-02-19T12:57:09;102500.50;;;10.89;76.68
72685;BME280;61365;52.162;4.500;2023-02-19T13:08:50;102510.81;;;10.81;75.31
72685;BME280;61365;52.162;4.500;2023-02-19T13:11:43;102512.19;;;11.02;74.48
72685;BME280;61365;52.162;4.500;2023-02-19T13:14:36;102521.66;;;10.95;71.92
72685;BME280;61365;52.162;4.500;2023-02-19T13:20:00;102519.50;;;10.45;76.84
72685;BME280;61365;52.162;4.500;2023-02-19T13:22:43;102531.09;;;10.22;78.68
72685;BME280;61365;52.162;4.500;2023-02-19T13:28:53;102535.59;;;10.57;73.21
72685;BME280;61365;52.162;4.500;2023-02-19T13:31:53;102544.59;;;10.36;71.72
72685;BME280;61365;52.162;4.500;2023-02-19T13:37:47;102557.44;;;9.94;78.03
72685;BME280;61365;52.162;4.500;2023-02-19T13:43:03;102545.00;;;10.49;76.12
72685;BME280;61365;52.162;4.500;2023-02-19T13:45:42;102557.06;;;10.42;74.74
72685;BME280;61365;52.162;4.500;2023-02-19T13:48:23;102565.81;;;10.43;72.95
72685;BME280;61365;52.162;4.500;2023-02-19T13:53:56;102560.22;;;10.32;77.66
72685;BME280;61365;52.162;4.500;2023-02-19T14:19:17;102568.88;;;9.67;80.71
72685;BME280;61365;52.162;4.500;2023-02-19T14:25:41;102570.03;;;9.49;77.82
72685;BME280;61365;52.162;4.500;2023-02-19T14:30:54;102557.63;;;9.71;79.45
72685;BME280;61365;52.162;4.500;2023-02-19T14:33:38;102548.47;;;9.87;76.37
72685;BME280;61365;52.162;4.500;2023-02-19T14:42:03;102562.38;;;9.84;78.75
72685;BME280;61365;52.162;4.500;2023-02-19T14:44:54;102554.09;;;9.70;76.61
72685;BME280;61365;52.162;4.500;2023-02-19T14:47:25;102544.97;;;9.57;79.02
72685;BME280;61365;52.162;4.500;2023-02-19T14:49:58;102541.56;;;9.60;78.78
72685;BME280;61365;52.162;4.500;2023-02-19T14:52:37;102545.75;;;9.84;79.52
72685;BME280;61365;52.162;4.500;2023-02-19T14:55:24;102560.03;;;10.24;77.32
72685;BME280;61365;52.162;4.500;2023-02-19T14:57:55;102552.09;;;10.22;75.70
72685;BME280;61365;52.162;4.500;2023-02-19T15:00:27;102549.81;;;10.03;77.52
72685;BME280;61365;52.162;4.500;2023-02-19T15:02:56;102547.16;;;10.01;76.06
72685;BME280;61365;52.162;4.500;2023-02-19T15:05:26;102545.03;;;10.20;77.76
72685;BME280;61365;52.162;4.500;2023-02-19T15:07:58;102552.13;;;9.92;74.91
72685;BME280;61365;52.162;4.500;2023-02-19T15:10:29;102556.31;;;9.87;79.51
72685;BME280;61365;52.162;4.500;2023-02-19T15:13:03;102560.72;;;9.88;78.61
72685;BME280;61365;52.162;4.500;2023-02-19T15:15:37;102567.31;;;10.04;77.79
72685;BME280;61365;52.162;4.500;2023-02-19T15:18:16;102568.16;;;10.03;77.33
72685;BME280;61365;52.162;4.500;2023-02-19T15:20:48;102573.47;;;10.04;77.76
72685;BME280;61365;52.162;4.500;2023-02-19T15:23:26;102574.03;;;9.94;78.51
72685;BME280;61365;52.162;4.500;2023-02-19T15:25:56;102581.72;;;9.88;77.35
72685;BME280;61365;52.162;4.500;2023-02-19T15:30:51;102581.34;;;9.46;76.50
72685;BME280;61365;52.162;4.500;2023-02-19T15:33:32;102577.72;;;9.72;77.64
72685;BME280;61365;52.162;4.500;2023-02-19T15:36:01;102574.63;;;9.55;76.96
72685;BME280;61365;52.162;4.500;2023-02-19T15:38:31;102576.09;;;9.46;79.85
72685;BME280;61365;52.162;4.500;2023-02-19T15:40:59;102568.97;;;9.70;79.17